Time;durP1;ratioP1;P1;durP2;ratioP2;P2;SDS_P1;SDS_P2;PMS_P1;PMS_P2;Temp;Humidity;BMP_temperature;BMP_pressure;BME280_temperature;BME280_humidity;BME280_pressure;Samples;Min_cycle;Max_cycle;Signal;HPM_P1;HPM_P2
2021/12/03 00:01:48;;;;;;;6.55;2.00;;;1.10;99.90;;;;;;5101120;28;20361;-81
2021/12/03 00:04:14;;;;;;;10.52;2.60;;;1.10;99.90;;;;;;5078585;28;20040;-81
2021/12/03 00:06:40;;;;;;;6.65;2.20;;;1.20;99.90;;;;;;5088869;28;20044;-81
2021/12/03 00:09:07;;;;;;;6.97;2.10;;;1.20;99.90;;;;;;5070211;28;20032;-81
2021/12/03 00:11:33;;;;;;;5.78;2.28;;;1.20;99.90;;;;;;5088130;28;20032;-81
2021/12/03 00:13:59;;;;;;;4.45;2.00;;;1.20;99.90;;;;;;5094980;28;20433;-81
2021/12/03 00:16:24;;;;;;;4.75;2.05;;;1.20;99.90;;;;;;5075571;28;20032;-81
2021/12/03 00:18:50;;;;;;;6.03;2.05;;;1.20;99.90;;;;;;5102805;28;20119;-81
2021/12/03 00:21:17;;;;;;;7.60;3.00;;;1.20;99.90;;;;;;5076393;28;20108;-81
2021/12/03 00:23:43;;;;;;;5.47;1.98;;;1.20;99.90;;;;;;5070112;28;20055;-81
2021/12/03 00:26:09;;;;;;;7.40;2.83;;;1.20;99.90;;;;;;5091363;28;20489;-81
2021/12/03 00:28:36;;;;;;;9.43;3.20;;;1.10;99.90;;;;;;5080557;28;20046;-81
2021/12/03 00:31:03;;;;;;;7.88;3.55;;;1.10;99.90;;;;;;5075309;28;20059;-81
2021/12/03 00:33:31;;;;;;;7.65;4.00;;;1.10;99.90;;;;;;5077667;28;20043;-81
2021/12/03 00:35:59;;;;;;;8.40;4.43;;;1.10;99.90;;;;;;5073893;28;20059;-81
2021/12/03 00:38:25;;;;;;;10.13;3.92;;;1.10;99.90;;;;;;5093430;28;20551;-81
2021/12/03 00:40:51;;;;;;;9.05;3.88;;;1.10;99.90;;;;;;5072576;28;20036;-81
2021/12/03 00:43:17;;;;;;;11.00;3.65;;;1.20;99.90;;;;;;5069970;28;20039;-81
2021/12/03 00:45:44;;;;;;;10.05;4.57;;;1.20;99.90;;;;;;5076773;28;20039;-81
2021/12/03 00:48:10;;;;;;;13.45;4.85;;;1.20;99.90;;;;;;5074431;28;20036;-81
2021/12/03 00:50:36;;;;;;;9.30;4.28;;;1.20;99.90;;;;;;5093696;28;20056;-81
2021/12/03 00:53:02;;;;;;;10.60;4.53;;;1.20;99.90;;;;;;5099251;28;20136;-81
2021/12/03 00:55:30;;;;;;;11.30;5.28;;;1.20;99.90;;;;;;5073478;28;20035;-81
2021/12/03 00:57:56;;;;;;;13.60;5.32;;;1.20;99.90;;;;;;5074236;28;20400;-81
2021/12/03 01:00:25;;;;;;;12.73;5.30;;;1.20;99.90;;;;;;5093109;28;20036;-81
2021/12/03 01:02:53;;;;;;;12.05;5.78;;;1.20;99.90;;;;;;5086877;28;20107;-81
2021/12/03 01:05:19;;;;;;;13.65;6.05;;;1.20;99.90;;;;;;5090105;28;20036;-82
2021/12/03 01:07:45;;;;;;;11.93;5.93;;;1.30;99.90;;;;;;5083378;28;20093;-81
2021/12/03 01:10:11;;;;;;;13.15;6.20;;;1.20;99.90;;;;;;5088289;28;20043;-81
2021/12/03 01:12:37;;;;;;;12.15;5.50;;;1.30;99.90;;;;;;5079371;28;20126;-81
2021/12/03 01:15:07;;;;;;;14.73;6.03;;;1.30;99.90;;;;;;5077832;28;20036;-81
2021/12/03 01:17:32;;;;;;;13.13;6.15;;;1.30;99.90;;;;;;5089564;28;20377;-81
2021/12/03 01:19:59;;;;;;;13.23;6.10;;;1.30;99.90;;;;;;5090587;28;21246;-81
2021/12/03 01:22:25;;;;;;;16.25;6.25;;;1.40;99.90;;;;;;5099121;28;20038;-81
2021/12/03 01:24:51;;;;;;;11.25;5.80;;;1.30;99.90;;;;;;5097927;28;20043;-81
2021/12/03 01:27:16;;;;;;;12.75;5.60;;;1.30;99.90;;;;;;5100122;28;20050;-81
2021/12/03 01:29:42;;;;;;;12.48;5.63;;;1.30;99.90;;;;;;5081962;28;20127;-81
2021/12/03 01:32:08;;;;;;;11.75;5.57;;;1.30;99.90;;;;;;5099980;28;20118;-81
2021/12/03 01:34:33;;;;;;;10.50;5.40;;;1.30;99.90;;;;;;5091348;28;20075;-81
2021/12/03 01:36:59;;;;;;;14.55;5.85;;;1.30;99.90;;;;;;5104058;28;20039;-81
2021/12/03 01:39:25;;;;;;;13.85;5.78;;;1.30;99.90;;;;;;5102831;28;20031;-81
2021/12/03 01:41:51;;;;;;;16.17;6.80;;;1.30;99.90;;;;;;5072100;28;20051;-81
2021/12/03 01:44:16;;;;;;;11.15;5.55;;;1.30;99.90;;;;;;5097460;28;20409;-81
2021/12/03 01:46:42;;;;;;;17.42;7.15;;;1.30;99.90;;;;;;5082097;28;20032;-81
2021/12/03 01:49:12;;;;;;;16.30;7.85;;;1.30;99.90;;;;;;5103524;28;20047;-81
2021/12/03 01:51:37;;;;;;;18.17;7.43;;;1.30;99.90;;;;;;5101726;28;20438;-81
2021/12/03 01:54:03;;;;;;;18.65;8.50;;;1.40;99.90;;;;;;5073689;28;20379;-81
2021/12/03 01:56:29;;;;;;;18.77;8.68;;;1.30;99.90;;;;;;5086702;28;20059;-81
2021/12/03 01:58:55;;;;;;;18.05;8.80;;;1.30;99.90;;;;;;5095380;28;20054;-81
2021/12/03 02:01:24;;;;;;;18.70;10.20;;;1.30;99.90;;;;;;5073846;28;20496;-82
2021/12/03 02:03:54;;;;;;;17.98;9.98;;;1.30;99.90;;;;;;5072230;28;20477;-81
2021/12/03 02:06:22;;;;;;;22.33;11.55;;;1.30;99.90;;;;;;5089779;28;20111;-81
2021/12/03 02:08:48;;;;;;;18.52;10.80;;;1.40;99.90;;;;;;5093285;28;20036;-81
2021/12/03 02:11:14;;;;;;;20.08;11.60;;;1.30;99.90;;;;;;5092943;28;20043;-81
2021/12/03 02:13:40;;;;;;;22.70;12.48;;;1.30;99.90;;;;;;5090512;28;20040;-81
2021/12/03 02:16:07;;;;;;;25.60;13.88;;;1.40;99.90;;;;;;5075588;28;20587;-81
2021/12/03 02:18:33;;;;;;;23.90;13.05;;;1.40;99.90;;;;;;5079587;28;20507;-81
2021/12/03 02:21:01;;;;;;;22.85;13.88;;;1.40;99.90;;;;;;5078854;28;20040;-81
2021/12/03 02:23:28;;;;;;;24.42;14.70;;;1.40;99.90;;;;;;5091719;28;20028;-81
2021/12/03 02:25:54;;;;;;;27.40;15.73;;;1.40;99.90;;;;;;5089014;28;20065;-81
2021/12/03 02:28:24;;;;;;;27.83;15.65;;;1.40;99.90;;;;;;5088267;28;20039;-81
2021/12/03 02:30:51;;;;;;;29.88;16.30;;;1.40;99.90;;;;;;5101278;28;21299;-81
2021/12/03 02:33:17;;;;;;;28.98;17.83;;;1.40;99.90;;;;;;5087447;28;20044;-81
2021/12/03 02:35:44;;;;;;;31.75;17.10;;;1.40;99.90;;;;;;5078085;28;20063;-81
2021/12/03 02:38:12;;;;;;;32.45;17.85;;;1.40;99.90;;;;;;5074795;28;20386;-81
2021/12/03 02:40:39;;;;;;;30.73;18.10;;;1.40;99.90;;;;;;5094079;28;20051;-81
2021/12/03 02:43:04;;;;;;;33.70;18.92;;;1.40;99.90;;;;;;5103189;28;20401;-81
2021/12/03 02:45:31;;;;;;;31.02;18.23;;;1.40;99.90;;;;;;5090720;28;20035;-81
2021/12/03 02:47:59;;;;;;;29.58;18.38;;;1.40;99.90;;;;;;5090913;28;20043;-81
2021/12/03 02:50:28;;;;;;;27.80;17.63;;;1.40;99.90;;;;;;5089491;28;20123;-81
2021/12/03 02:52:54;;;;;;;32.10;18.27;;;1.40;99.90;;;;;;5094616;28;20421;-81
2021/12/03 02:55:21;;;;;;;29.60;17.83;;;1.50;99.90;;;;;;5098404;28;20046;-81
2021/12/03 02:57:47;;;;;;;27.80;18.00;;;1.50;99.90;;;;;;5096431;28;20471;-81
2021/12/03 03:00:15;;;;;;;33.47;18.95;;;1.50;99.90;;;;;;5072936;28;20074;-81
2021/12/03 03:02:42;;;;;;;30.77;17.48;;;1.50;99.90;;;;;;5070716;28;20734;-81
2021/12/03 03:05:09;;;;;;;29.35;18.05;;;1.50;99.90;;;;;;5079834;28;20481;-81
2021/12/03 03:07:35;;;;;;;25.65;17.33;;;1.50;99.90;;;;;;5085201;28;20416;-81
2021/12/03 03:10:03;;;;;;;25.73;16.35;;;1.50;99.90;;;;;;5093515;28;20176;-81
2021/12/03 03:12:29;;;;;;;25.42;16.90;;;1.50;99.90;;;;;;5075789;28;20067;-81
2021/12/03 03:14:58;;;;;;;27.20;16.85;;;1.50;99.90;;;;;;5091836;28;20072;-81
2021/12/03 03:17:27;;;;;;;28.17;17.23;;;1.50;99.90;;;;;;5092723;28;20040;-81
2021/12/03 03:19:54;;;;;;;26.13;16.50;;;1.50;99.90;;;;;;5073608;28;20828;-81
2021/12/03 03:22:21;;;;;;;26.48;17.90;;;1.60;99.90;;;;;;5082835;28;20101;-81
2021/12/03 03:24:47;;;;;;;27.35;17.05;;;1.50;99.90;;;;;;5076309;28;20106;-81
2021/12/03 03:27:14;;;;;;;27.85;16.48;;;1.50;99.90;;;;;;5087685;28;20544;-81
2021/12/03 03:29:43;;;;;;;24.75;16.45;;;1.50;99.90;;;;;;5087399;28;20040;-81
2021/12/03 03:32:09;;;;;;;30.42;16.60;;;1.50;99.90;;;;;;5088659;28;20036;-81
2021/12/03 03:34:35;;;;;;;29.70;17.45;;;1.50;99.90;;;;;;5094038;28;20032;-81
2021/12/03 03:37:01;;;;;;;29.35;17.08;;;1.50;99.90;;;;;;5095945;28;20477;-81
2021/12/03 03:39:27;;;;;;;28.48;17.17;;;1.50;99.90;;;;;;5067671;28;20039;-80
2021/12/03 03:41:53;;;;;;;29.02;17.35;;;1.50;99.90;;;;;;5070946;28;20439;-81
2021/12/03 03:44:19;;;;;;;24.83;17.17;;;1.50;99.90;;;;;;5087859;28;20046;-81
2021/12/03 03:46:46;;;;;;;25.92;16.85;;;1.50;99.90;;;;;;5101295;28;20039;-81
2021/12/03 03:49:11;;;;;;;26.02;16.75;;;1.50;99.90;;;;;;5074626;28;20040;-81
2021/12/03 03:51:37;;;;;;;26.45;17.58;;;1.50;99.90;;;;;;5086752;28;20042;-81
2021/12/03 03:54:03;;;;;;;29.50;17.70;;;1.50;99.90;;;;;;5088483;28;20196;-81
2021/12/03 03:56:30;;;;;;;28.02;18.50;;;1.50;99.90;;;;;;5068614;28;20046;-81
2021/12/03 03:58:56;;;;;;;26.75;18.00;;;1.50;99.90;;;;;;5077816;28;20043;-81
2021/12/03 04:01:22;;;;;;;29.95;17.92;;;1.60;99.90;;;;;;5076201;28;20139;-81
2021/12/03 04:03:47;;;;;;;30.25;17.63;;;1.60;99.90;;;;;;5086967;28;20126;-81
2021/12/03 04:06:18;;;;;;;28.83;19.17;;;1.60;99.90;;;;;;5074327;28;20186;-81
2021/12/03 04:08:46;;;;;;;31.33;17.05;;;1.60;99.90;;;;;;5100833;28;20507;-81
2021/12/03 04:11:15;;;;;;;29.45;18.23;;;1.60;99.90;;;;;;5079324;28;20066;-81
2021/12/03 04:13:43;;;;;;;26.40;18.23;;;1.50;99.90;;;;;;5094433;28;20036;-81
2021/12/03 04:16:09;;;;;;;29.33;18.70;;;1.60;99.90;;;;;;5088908;28;20044;-81
2021/12/03 04:18:35;;;;;;;29.92;18.13;;;1.60;99.90;;;;;;5070845;28;20036;-81
2021/12/03 04:21:01;;;;;;;28.42;18.20;;;1.50;99.90;;;;;;5074372;28;20051;-81
2021/12/03 04:23:26;;;;;;;28.42;18.40;;;1.50;99.90;;;;;;5094153;28;20077;-81
2021/12/03 04:25:53;;;;;;;31.25;18.52;;;1.60;99.90;;;;;;5101996;28;20130;-81
2021/12/03 04:28:20;;;;;;;25.67;16.67;;;1.60;99.90;;;;;;5078039;28;20039;-81
2021/12/03 04:30:47;;;;;;;28.45;17.15;;;1.50;99.90;;;;;;5097769;28;20091;-81
2021/12/03 04:33:15;;;;;;;24.55;17.23;;;1.60;99.90;;;;;;5088942;28;20546;-81
2021/12/03 04:35:41;;;;;;;23.95;16.50;;;1.60;99.90;;;;;;5071690;28;20515;-81
2021/12/03 04:38:07;;;;;;;26.55;17.23;;;1.60;99.90;;;;;;5088615;28;20044;-81
2021/12/03 04:40:35;;;;;;;24.55;16.10;;;1.60;99.90;;;;;;5096913;28;20035;-81
2021/12/03 04:43:02;;;;;;;27.23;16.23;;;1.60;99.90;;;;;;5091704;28;20416;-81
2021/12/03 04:45:29;;;;;;;29.73;16.08;;;1.60;99.90;;;;;;5087423;28;20473;-81
2021/12/03 04:47:58;;;;;;;29.80;17.20;;;1.60;99.90;;;;;;5096673;28;20036;-82
2021/12/03 04:50:26;;;;;;;24.88;15.48;;;1.70;99.90;;;;;;5102111;28;20047;-82
2021/12/03 04:52:53;;;;;;;23.63;15.68;;;1.60;99.90;;;;;;5079450;28;20044;-81
2021/12/03 04:55:20;;;;;;;26.48;15.07;;;1.60;99.90;;;;;;5077897;28;20043;-81
2021/12/03 04:57:46;;;;;;;25.75;15.52;;;1.60;99.90;;;;;;5098853;28;20036;-81
2021/12/03 05:00:20;;;;;;;24.85;14.52;;;1.60;99.90;;;;;;5095348;28;20043;-81
2021/12/03 05:02:46;;;;;;;22.27;15.23;;;1.60;99.90;;;;;;5075363;28;20059;-81
2021/12/03 05:05:12;;;;;;;20.58;14.32;;;1.60;99.90;;;;;;5102172;28;20534;-81
2021/12/03 05:10:05;;;;;;;26.48;15.82;;;1.60;99.90;;;;;;5098999;28;20048;-81
2021/12/03 05:12:30;;;;;;;22.15;15.00;;;1.60;99.90;;;;;;5080890;28;20035;-81
2021/12/03 05:14:56;;;;;;;19.65;15.23;;;1.70;99.90;;;;;;5093559;28;20039;-81
2021/12/03 05:17:22;;;;;;;24.95;15.45;;;1.70;99.90;;;;;;5086740;28;20332;-81
2021/12/03 05:19:48;;;;;;;23.83;15.98;;;1.70;99.90;;;;;;5081458;28;20122;-81
2021/12/03 05:22:14;;;;;;;23.58;15.48;;;1.70;99.90;;;;;;5079419;28;20044;-81
2021/12/03 05:24:45;;;;;;;22.88;14.38;;;1.70;99.90;;;;;;5083184;28;20028;-81
2021/12/03 05:27:14;;;;;;;22.63;14.02;;;1.70;99.90;;;;;;5098395;28;20076;-81
2021/12/03 05:29:42;;;;;;;21.33;14.48;;;1.70;99.90;;;;;;5102968;28;20054;-81
2021/12/03 05:32:08;;;;;;;25.42;15.45;;;1.70;99.90;;;;;;5092555;28;20546;-81
2021/12/03 05:34:34;;;;;;;21.50;15.35;;;1.80;99.90;;;;;;5076758;28;20031;-81
2021/12/03 05:37:00;;;;;;;20.83;14.38;;;1.80;99.90;;;;;;5074163;28;20092;-81
2021/12/03 05:39:26;;;;;;;24.65;14.52;;;1.80;99.90;;;;;;5084126;28;20032;-81
2021/12/03 05:41:51;;;;;;;22.08;13.82;;;1.80;99.90;;;;;;5074544;28;20467;-81
2021/12/03 05:44:17;;;;;;;19.42;14.07;;;1.80;99.90;;;;;;5093682;28;20044;-81
2021/12/03 05:46:43;;;;;;;22.48;14.60;;;1.80;99.90;;;;;;5096342;28;20503;-81
2021/12/03 05:49:09;;;;;;;21.50;13.43;;;1.80;99.90;;;;;;5087397;28;20040;-81
2021/12/03 05:51:35;;;;;;;20.05;13.38;;;1.80;99.90;;;;;;5077632;28;20036;-82
2021/12/03 05:54:00;;;;;;;20.20;13.35;;;1.80;99.90;;;;;;5095839;28;20036;-81
2021/12/03 05:56:26;;;;;;;20.38;13.88;;;1.80;99.90;;;;;;5081070;28;20043;-81
2021/12/03 05:58:52;;;;;;;21.55;13.93;;;1.90;99.90;;;;;;5102549;28;20081;-81
2021/12/03 06:01:18;;;;;;;20.52;12.80;;;1.90;99.90;;;;;;5091595;28;20059;-81
2021/12/03 06:03:46;;;;;;;19.15;13.65;;;1.90;99.90;;;;;;5089765;28;20135;-81
2021/12/03 06:06:12;;;;;;;22.38;13.45;;;1.90;99.90;;;;;;5087974;28;20055;-81
2021/12/03 06:08:38;;;;;;;20.73;13.15;;;1.90;99.90;;;;;;5078173;28;20523;-81
2021/12/03 06:11:04;;;;;;;23.38;13.43;;;1.90;99.90;;;;;;5077568;28;20078;-81
2021/12/03 06:13:29;;;;;;;20.50;13.48;;;1.90;99.90;;;;;;5075065;28;20089;-82
2021/12/03 06:15:55;;;;;;;20.25;13.20;;;1.90;99.90;;;;;;5075817;28;20063;-81
2021/12/03 06:18:21;;;;;;;23.67;13.07;;;2.00;99.90;;;;;;5078473;28;20506;-81
2021/12/03 06:20:47;;;;;;;19.35;11.93;;;2.00;99.90;;;;;;5077523;28;20042;-82
2021/12/03 06:23:12;;;;;;;24.45;13.32;;;2.00;99.90;;;;;;5081454;28;20032;-82
2021/12/03 06:25:39;;;;;;;17.52;11.90;;;2.00;99.90;;;;;;5075164;28;20036;-81
2021/12/03 06:28:05;;;;;;;21.38;12.38;;;2.00;99.90;;;;;;5080098;28;20039;-81
2021/12/03 06:30:31;;;;;;;20.85;11.55;;;2.00;99.90;;;;;;5078624;28;20036;-81
2021/12/03 06:32:56;;;;;;;18.75;11.82;;;2.00;99.90;;;;;;5073586;28;20040;-82
2021/12/03 06:35:23;;;;;;;20.40;12.55;;;2.10;99.90;;;;;;5091366;28;20130;-82
2021/12/03 06:37:49;;;;;;;26.42;12.15;;;2.10;99.90;;;;;;5083958;28;20101;-81
2021/12/03 06:40:18;;;;;;;18.88;11.98;;;2.00;99.90;;;;;;5065484;28;20429;-81
2021/12/03 06:42:44;;;;;;;21.13;12.27;;;2.10;99.90;;;;;;5095433;28;20392;-81
2021/12/03 06:45:10;;;;;;;18.48;11.70;;;2.10;99.90;;;;;;5081465;28;20032;-81
2021/12/03 06:47:36;;;;;;;20.90;12.15;;;2.10;99.90;;;;;;5094906;28;20039;-81
2021/12/03 06:50:07;;;;;;;24.00;12.00;;;2.10;99.90;;;;;;5091637;28;20036;-81
2021/12/03 06:52:34;;;;;;;18.15;11.95;;;2.20;99.90;;;;;;5089847;28;20036;-81
2021/12/03 06:55:03;;;;;;;20.38;11.35;;;2.10;99.90;;;;;;5074191;28;20035;-82
2021/12/03 06:57:29;;;;;;;19.17;11.13;;;2.20;99.90;;;;;;5097487;28;20035;-82
2021/12/03 06:59:55;;;;;;;19.23;11.18;;;2.20;99.90;;;;;;5084210;28;20050;-81
2021/12/03 07:02:20;;;;;;;21.20;12.20;;;2.20;99.90;;;;;;5096744;28;20031;-82
2021/12/03 07:04:46;;;;;;;22.08;11.85;;;2.20;99.90;;;;;;5071178;28;20155;-81
2021/12/03 07:07:12;;;;;;;18.83;12.07;;;2.20;99.90;;;;;;5082504;28;20040;-81
2021/12/03 07:09:38;;;;;;;19.60;12.35;;;2.20;99.90;;;;;;5090663;28;20066;-81
2021/12/03 07:12:04;;;;;;;21.25;13.00;;;2.30;99.90;;;;;;5095031;28;20036;-81
2021/12/03 07:14:30;;;;;;;19.45;12.32;;;2.30;99.90;;;;;;5096888;28;20075;-81
2021/12/03 07:16:57;;;;;;;20.88;12.27;;;2.30;99.90;;;;;;5078683;28;20068;-81
2021/12/03 07:19:23;;;;;;;22.88;12.20;;;2.30;99.90;;;;;;5091075;28;20036;-81
2021/12/03 07:21:49;;;;;;;21.05;11.98;;;2.30;99.90;;;;;;5069833;28;20381;-81
2021/12/03 07:24:15;;;;;;;22.08;12.73;;;2.30;99.90;;;;;;5101668;28;20396;-81
2021/12/03 07:26:41;;;;;;;25.08;12.75;;;2.40;99.90;;;;;;5100096;28;20076;-81
2021/12/03 07:29:07;;;;;;;21.35;12.40;;;2.40;99.90;;;;;;5096079;28;20067;-81
2021/12/03 07:31:32;;;;;;;26.23;13.95;;;2.40;99.90;;;;;;5092024;28;20040;-81
2021/12/03 07:33:58;;;;;;;24.60;12.73;;;2.40;99.90;;;;;;5096892;28;20047;-81
2021/12/03 07:36:24;;;;;;;27.23;13.10;;;2.40;99.90;;;;;;5091660;28;20122;-81
2021/12/03 07:38:51;;;;;;;22.10;12.00;;;2.40;99.90;;;;;;5096391;28;20070;-81
2021/12/03 07:41:16;;;;;;;27.80;12.93;;;2.40;99.90;;;;;;5097566;28;20138;-81
2021/12/03 07:43:42;;;;;;;27.30;12.32;;;2.40;99.90;;;;;;5081356;28;20040;-81
2021/12/03 07:46:08;;;;;;;24.35;12.07;;;2.50;99.90;;;;;;5076728;28;20042;-81
2021/12/03 07:48:34;;;;;;;23.15;12.55;;;2.50;99.90;;;;;;5075465;28;20043;-81
2021/12/03 07:50:59;;;;;;;22.83;12.98;;;2.50;99.90;;;;;;5094016;28;20036;-81
2021/12/03 07:53:26;;;;;;;23.33;12.77;;;2.60;99.90;;;;;;5088387;28;20028;-81
2021/12/03 07:55:52;;;;;;;27.10;13.18;;;2.60;99.90;;;;;;5073763;28;20311;-81
2021/12/03 07:58:18;;;;;;;27.90;12.57;;;2.60;99.90;;;;;;5071190;28;20094;-81
2021/12/03 08:00:46;;;;;;;25.20;13.25;;;2.60;99.90;;;;;;5080972;28;20042;-81
2021/12/03 08:03:12;;;;;;;23.50;13.55;;;2.60;99.90;;;;;;5096466;28;20028;-80
2021/12/03 08:05:38;;;;;;;25.38;12.90;;;2.60;99.90;;;;;;5075621;28;20054;-81
2021/12/03 08:08:05;;;;;;;24.00;13.30;;;2.70;99.90;;;;;;5096119;28;20080;-81
2021/12/03 08:10:34;;;;;;;25.42;13.23;;;2.60;99.90;;;;;;5102297;28;20035;-81
2021/12/03 08:13:00;;;;;;;24.38;12.95;;;2.60;99.90;;;;;;5078789;28;20449;-81
2021/12/03 08:15:26;;;;;;;25.63;13.27;;;2.60;99.90;;;;;;5082226;28;20039;-80
2021/12/03 08:17:52;;;;;;;24.95;13.45;;;2.70;99.90;;;;;;5065727;28;20135;-80
2021/12/03 08:20:18;;;;;;;27.15;13.65;;;2.70;99.90;;;;;;5068695;28;20504;-80
2021/12/03 08:22:44;;;;;;;27.98;14.00;;;2.60;99.90;;;;;;5067162;28;20032;-80
2021/12/03 08:25:11;;;;;;;32.42;15.32;;;2.70;99.90;;;;;;5082924;28;20504;-80
2021/12/03 08:27:37;;;;;;;29.70;14.48;;;2.70;99.90;;;;;;5089979;28;20112;-79
2021/12/03 08:30:04;;;;;;;29.83;15.80;;;2.70;99.90;;;;;;5088683;28;20035;-79
2021/12/03 08:32:30;;;;;;;30.48;15.02;;;2.80;99.90;;;;;;5087152;28;20040;-80
2021/12/03 08:34:56;;;;;;;28.42;15.55;;;2.80;99.90;;;;;;5083213;28;20079;-80
2021/12/03 08:37:22;;;;;;;34.35;15.57;;;2.80;99.90;;;;;;5088979;28;20070;-80
2021/12/03 08:39:47;;;;;;;29.35;16.30;;;2.80;99.90;;;;;;5087110;28;20039;-80
2021/12/03 08:42:13;;;;;;;32.85;16.25;;;2.80;99.90;;;;;;5083681;28;20512;-79
2021/12/03 08:44:40;;;;;;;33.97;17.38;;;2.90;99.90;;;;;;5095553;28;20051;-80
2021/12/03 08:47:07;;;;;;;40.90;18.55;;;2.90;99.90;;;;;;5082288;28;20489;-79
2021/12/03 08:57:15;;;;;;;35.60;20.00;;;3.00;99.90;;;;;;5098367;28;20071;-79
2021/12/03 08:59:40;;;;;;;39.55;20.95;;;3.00;99.90;;;;;;5088815;28;20508;-80
2021/12/03 09:02:07;;;;;;;40.22;20.23;;;3.00;99.90;;;;;;5076383;28;20067;-81
2021/12/03 09:04:33;;;;;;;40.50;20.67;;;3.00;99.90;;;;;;5104754;28;20119;-80
2021/12/03 09:07:00;;;;;;;37.03;20.70;;;3.10;99.90;;;;;;5083506;28;20508;-80
2021/12/03 09:09:26;;;;;;;38.65;21.55;;;3.20;99.90;;;;;;5068406;28;20569;-79
2021/12/03 09:11:52;;;;;;;45.00;23.63;;;3.20;99.90;;;;;;5079805;28;20055;-78
2021/12/03 09:14:25;;;;;;;44.90;22.48;;;3.20;99.90;;;;;;5087517;28;20610;-78
2021/12/03 09:17:05;;;;;;;42.65;24.10;;;3.20;99.90;;;;;;5069963;28;20064;-79
2021/12/03 09:19:36;;;;;;;43.00;23.38;;;3.20;99.90;;;;;;5083139;28;20679;-78
2021/12/03 09:22:02;;;;;;;48.58;24.20;;;3.20;99.90;;;;;;5085691;28;20110;-78
2021/12/03 09:24:34;;;;;;;46.67;24.00;;;3.30;99.90;;;;;;5072313;28;20051;-79
2021/12/03 09:27:00;;;;;;;49.58;23.25;;;3.20;99.90;;;;;;5083609;28;20059;-78
2021/12/03 09:29:34;;;;;;;49.42;23.73;;;3.30;99.90;;;;;;5077531;28;20036;-78
2021/12/03 09:32:00;;;;;;;49.72;24.30;;;3.30;99.90;;;;;;5084873;28;20093;-78
2021/12/03 09:34:30;;;;;;;48.42;24.58;;;3.30;99.90;;;;;;5075351;28;20117;-78
2021/12/03 09:36:56;;;;;;;50.45;25.13;;;3.30;99.90;;;;;;5086360;28;20413;-79
2021/12/03 09:39:23;;;;;;;49.88;24.63;;;3.30;99.90;;;;;;5071184;28;20037;-81
2021/12/03 09:41:52;;;;;;;45.58;23.60;;;3.40;99.90;;;;;;5072909;28;20384;-82
2021/12/03 09:44:18;;;;;;;51.42;24.20;;;3.40;99.90;;;;;;5074380;28;20091;-83
2021/12/03 09:46:46;;;;;;;51.95;25.38;;;3.40;99.90;;;;;;5078982;28;20044;-80
2021/12/03 09:51:53;;;;;;;50.03;22.70;;;3.50;99.90;;;;;;5097126;28;20052;-80
2021/12/03 09:57:13;;;;;;;47.05;22.50;;;3.50;99.90;;;;;;5091418;28;20055;-80
2021/12/03 10:00:03;;;;;;;49.42;22.25;;;3.50;99.90;;;;;;5091264;28;20032;-80
2021/12/03 10:02:50;;;;;;;49.45;23.25;;;3.50;99.90;;;;;;5090255;28;20196;-80
2021/12/03 10:11:02;;;;;;;49.53;22.40;;;3.60;99.90;;;;;;5091459;28;20044;-81
2021/12/03 10:13:34;;;;;;;46.55;20.95;;;3.70;99.90;;;;;;5089367;28;20048;-81
2021/12/03 10:21:20;;;;;;;43.78;21.98;;;3.80;99.90;;;;;;5095833;28;20044;-80
2021/12/03 10:29:24;;;;;;;39.47;17.55;;;3.90;99.90;;;;;;5091126;28;20056;-81
2021/12/03 10:40:53;;;;;;;35.08;15.27;;;3.90;99.90;;;;;;5023932;28;20128;-81
2021/12/03 11:02:44;;;;;;;30.95;10.27;;;3.90;99.90;;;;;;5078251;28;20255;-81
2021/12/03 11:25:19;;;;;;;25.83;7.63;;;4.00;99.90;;;;;;5094781;27;20083;-81
2021/12/03 11:44:13;;;;;;;20.75;6.95;;;3.90;99.90;;;;;;5083147;28;20038;-81
2021/12/03 12:04:13;;;;;;;20.02;6.00;;;3.90;99.90;;;;;;5084045;28;20043;-82
2021/12/03 12:29:21;;;;;;;16.85;7.25;;;3.70;99.90;;;;;;5078340;28;20465;-84
2021/12/03 12:32:43;;;;;;;16.75;7.45;;;3.70;99.90;;;;;;5081921;28;20093;-84
2021/12/03 12:34:51;;;;;;;17.13;7.10;;;3.70;99.90;;;;;;5097450;28;20067;-83
2021/12/03 12:40:19;;;;;;;16.95;7.22;;;3.70;99.90;;;;;;5087373;28;20248;-82
2021/12/03 13:00:27;;;;;;;12.35;5.95;;;3.70;99.90;;;;;;5086197;28;20040;-83
2021/12/03 13:33:10;;;;;;;19.98;10.07;;;3.80;99.90;;;;;;5085320;28;20082;-83
2021/12/03 13:39:17;;;;;;;17.33;7.18;;;3.90;99.90;;;;;;5091106;28;20051;-83
2021/12/03 14:02:37;;;;;;;20.92;7.85;;;4.00;99.90;;;;;;5090685;28;20197;-83
2021/12/03 14:35:42;;;;;;;18.42;7.95;;;4.10;99.90;;;;;;5089836;28;20044;-83
2021/12/03 14:45:30;;;;;;;15.52;6.97;;;4.20;99.90;;;;;;5087746;28;20043;-83
2021/12/03 14:50:58;;;;;;;19.17;6.87;;;4.30;99.90;;;;;;5089723;28;20134;-83
2021/12/03 14:56:12;;;;;;;11.05;7.03;;;4.30;99.90;;;;;;5086722;28;20252;-83
2021/12/03 15:03:57;;;;;;;14.90;6.78;;;4.40;99.90;;;;;;5089970;28;20528;-83
2021/12/03 15:06:31;;;;;;;12.27;6.93;;;4.40;99.90;;;;;;5071601;28;20040;-83
2021/12/03 15:09:07;;;;;;;14.75;7.72;;;4.40;99.90;;;;;;5072391;28;20577;-83
2021/12/03 15:14:50;;;;;;;16.02;7.68;;;4.50;99.90;;;;;;5088038;28;20047;-84
2021/12/03 15:20:11;;;;;;;16.92;7.60;;;4.50;99.90;;;;;;5088015;28;20040;-83
2021/12/03 15:31:07;;;;;;;18.10;7.93;;;4.50;99.90;;;;;;5071600;28;20044;-83
2021/12/03 15:36:39;;;;;;;14.70;8.45;;;4.60;99.90;;;;;;5088546;28;20056;-83
2021/12/03 15:39:40;;;;;;;17.00;7.50;;;4.60;99.90;;;;;;5088443;28;20040;-83
2021/12/03 16:03:29;;;;;;;15.40;8.82;;;4.60;99.90;;;;;;5092862;28;20456;-83
2021/12/03 16:11:56;;;;;;;17.30;10.52;;;4.70;99.90;;;;;;5075820;28;20036;-82
2021/12/03 16:19:38;;;;;;;15.27;10.40;;;4.70;99.90;;;;;;5088801;28;20037;-84
2021/12/03 16:25:06;;;;;;;15.88;11.43;;;4.70;99.90;;;;;;5088032;28;20048;-83
2021/12/03 16:43:50;;;;;;;16.83;11.27;;;4.70;99.90;;;;;;5092847;27;20489;-83
2021/12/03 16:46:33;;;;;;;16.92;11.45;;;4.70;99.90;;;;;;5075978;28;20550;-84
2021/12/03 16:51:41;;;;;;;20.25;14.48;;;4.70;99.90;;;;;;5080230;28;20499;-83
2021/12/03 16:54:11;;;;;;;24.00;13.73;;;4.70;99.90;;;;;;5055873;28;20416;-83
2021/12/03 16:56:44;;;;;;;22.13;13.98;;;4.70;99.90;;;;;;5080117;28;20044;-82
2021/12/03 16:59:10;;;;;;;24.50;14.95;;;4.70;99.90;;;;;;5094515;28;20119;-83
2021/12/03 17:01:41;;;;;;;21.20;14.35;;;4.70;99.90;;;;;;5076932;28;20262;-84
2021/12/03 17:07:24;;;;;;;21.40;14.85;;;4.70;99.90;;;;;;5083759;28;20039;-84
2021/12/03 17:15:24;;;;;;;25.52;17.20;;;4.70;99.90;;;;;;5076523;28;20037;-83
2021/12/03 17:21:17;;;;;;;24.55;16.77;;;4.70;99.90;;;;;;5081443;28;20123;-83
2021/12/03 17:45:37;;;;;;;32.28;21.75;;;4.70;99.90;;;;;;5076051;28;20040;-85
2021/12/03 17:48:22;;;;;;;28.35;18.80;;;4.70;99.90;;;;;;5087056;28;20055;-88
2021/12/03 17:56:12;;;;;;;30.48;20.27;;;4.70;99.90;;;;;;5089020;28;20610;-84
2021/12/03 17:58:42;;;;;;;33.63;22.02;;;4.70;99.90;;;;;;5087655;28;20039;-85
2021/12/03 18:01:14;;;;;;;29.40;19.65;;;4.70;99.90;;;;;;5073139;28;20378;-85
2021/12/03 18:08:52;;;;;;;30.65;19.42;;;4.80;99.90;;;;;;5090122;28;20058;-84
2021/12/03 18:14:46;;;;;;;30.75;19.30;;;4.70;99.90;;;;;;5087800;28;20162;-84
2021/12/03 18:17:22;;;;;;;34.75;19.85;;;4.80;99.90;;;;;;5083672;28;20058;-85
2021/12/03 18:54:45;;;;;;;34.05;21.92;;;4.90;99.90;;;;;;5074002;28;20044;-84
2021/12/03 18:57:14;;;;;;;37.55;21.92;;;4.90;99.90;;;;;;5075498;28;20078;-83
2021/12/03 18:59:59;;;;;;;38.47;22.83;;;4.90;99.90;;;;;;5059464;28;20386;-85
2021/12/03 19:02:26;;;;;;;36.05;21.25;;;4.90;99.90;;;;;;5077520;28;20047;-84
2021/12/03 19:04:59;;;;;;;35.13;22.08;;;4.90;99.90;;;;;;5073358;28;20107;-84
2021/12/03 19:08:15;;;;;;;38.45;22.95;;;4.90;99.90;;;;;;5056955;28;20127;-84
2021/12/03 19:10:18;;;;;;;41.22;23.52;;;4.90;99.90;;;;;;5072737;28;20512;-84
2021/12/03 19:12:47;;;;;;;38.58;22.63;;;4.90;99.90;;;;;;5058347;28;20405;-85
2021/12/03 19:15:13;;;;;;;52.22;31.13;;;5.00;99.90;;;;;;5074081;28;20541;-85
2021/12/03 19:17:41;;;;;;;118.22;57.85;;;5.00;99.90;;;;;;5078091;28;20465;-84
2021/12/03 19:20:13;;;;;;;44.67;25.52;;;5.00;99.90;;;;;;5071516;28;20036;-85
2021/12/03 19:22:39;;;;;;;40.08;26.05;;;5.00;99.90;;;;;;5074115;28;20050;-85
2021/12/03 19:25:04;;;;;;;40.15;25.70;;;5.00;99.90;;;;;;5075558;28;20255;-85
2021/12/03 19:27:30;;;;;;;42.53;25.63;;;5.00;99.90;;;;;;5074749;28;20070;-86
2021/12/03 19:29:58;;;;;;;43.15;23.65;;;5.00;99.90;;;;;;5072970;28;20098;-86
2021/12/03 19:32:26;;;;;;;41.05;25.05;;;5.10;99.90;;;;;;5078482;28;20032;-86
2021/12/03 19:34:53;;;;;;;42.85;23.38;;;5.00;99.90;;;;;;5072872;28;20385;-86
2021/12/03 19:37:20;;;;;;;44.10;25.30;;;5.00;99.90;;;;;;5077307;28;20406;-86
2021/12/03 19:39:46;;;;;;;42.78;25.40;;;5.00;99.90;;;;;;5064254;28;20036;-86